Aviation Digital Data Service (ADDS)

Output produced by METARs form (1709 UTC 24 April 2017)
found at http://www.aviationweather.gov/adds/metars/
 
OOSA 241650Z 18005KT 9999 FEW025 28/24 Q1011 NOSIG
TAF OOSA 240540Z 2406/2512 19012KT 9999 FEW025 
     BECMG 2416/2418 VRB03KT BKN025 
     BECMG 2505/2507 20012KT FEW025
       
OOMS 241550Z 06003KT 8000 NSC 33/19 Q1006 NOSIG
TAF OOMS 241700Z 2418/2524 20005KT 8000 NSC 
     PROB30 
     TEMPO 2419/2500 21015KT 
     BECMG 2506/2508 07012KT 
     BECMG 2518/2520 25008KT